createdAt,value
2019-03-28T00:02:44.182Z,13.65
2019-03-28T00:07:50.369Z,11.38
2019-03-28T00:12:53.879Z,11.60
2019-03-28T00:17:57.375Z,12.28
2019-03-28T00:23:05.431Z,10.98
2019-03-28T00:28:08.913Z,11.93
2019-03-28T00:33:12.448Z,10.32
2019-03-28T00:38:15.927Z,11.65
2019-03-28T00:43:19.398Z,13.48
2019-03-28T00:48:22.959Z,11.48
2019-03-28T00:53:26.508Z,9.98
2019-03-28T00:58:30.093Z,9.65
2019-03-28T01:03:33.600Z,10.95
2019-03-28T01:08:37.869Z,11.85
2019-03-28T01:13:41.542Z,9.55
2019-03-28T01:18:45.183Z,9.28
2019-03-28T01:23:49.182Z,9.80
2019-03-28T01:28:52.736Z,8.70
2019-03-28T01:33:56.290Z,9.23
2019-03-28T01:38:59.759Z,9.20
2019-03-28T01:44:03.508Z,8.83
2019-03-28T01:49:07.046Z,8.53
2019-03-28T01:54:10.523Z,10.10
2019-03-28T01:59:14.022Z,8.88
2019-03-28T02:04:17.622Z,10.72
2019-03-28T02:09:21.139Z,8.63
2019-03-28T02:14:24.823Z,8.95
2019-03-28T02:19:28.312Z,8.45
2019-03-28T02:24:31.791Z,8.48
2019-03-28T02:29:35.349Z,7.53
2019-03-28T02:34:38.812Z,8.73
2019-03-28T02:39:42.280Z,6.87
2019-03-28T02:44:45.797Z,8.60
2019-03-28T02:49:49.293Z,8.85
2019-03-28T02:54:52.840Z,7.28
2019-03-28T02:59:56.689Z,8.08
2019-03-28T03:05:00.471Z,7.92
2019-03-28T03:10:07.268Z,7.45
2019-03-28T03:15:11.638Z,7.28
2019-03-28T03:20:15.725Z,7.33
2019-03-28T03:25:19.438Z,6.80
2019-03-28T03:30:23.014Z,6.70
2019-03-28T03:35:26.599Z,6.58
2019-03-28T03:40:30.360Z,8.25
2019-03-28T03:45:34.185Z,7.17
2019-03-28T03:50:37.763Z,6.75
2019-03-28T03:55:41.236Z,6.45
2019-03-28T04:00:44.710Z,5.50
2019-03-28T04:05:48.245Z,6.55
2019-03-28T04:10:51.816Z,6.83
2019-03-28T04:15:55.364Z,8.55
2019-03-28T04:20:58.841Z,7.60
2019-03-28T04:26:02.306Z,9.85
2019-03-28T04:31:05.878Z,6.17
2019-03-28T04:36:09.372Z,7.15
2019-03-28T04:41:12.948Z,7.12
2019-03-28T04:46:16.427Z,8.30
2019-03-28T04:51:19.932Z,9.45
2019-03-28T04:56:23.410Z,7.47
2019-03-28T05:01:26.943Z,8.48
2019-03-28T05:06:30.426Z,8.00
2019-03-28T05:11:34.000Z,9.55
2019-03-28T05:16:37.554Z,12.60
2019-03-28T05:21:41.031Z,6.87
2019-03-28T05:26:44.653Z,8.15
2019-03-28T05:31:48.116Z,8.48
2019-03-28T05:36:52.259Z,7.85
2019-03-28T05:41:55.970Z,8.33
2019-03-28T05:46:59.433Z,6.45
2019-03-28T05:52:02.936Z,7.95
2019-03-28T05:57:06.487Z,5.47
2019-03-28T06:02:10.270Z,6.35
2019-03-28T06:07:13.735Z,7.58
2019-03-28T06:12:19.028Z,6.62
2019-03-28T06:17:22.444Z,9.15
2019-03-28T06:22:26.019Z,5.97
2019-03-28T06:27:29.652Z,64.12
2019-03-28T06:32:42.749Z,136.62
2019-03-28T06:37:38.346Z,91.02
2019-03-28T06:42:41.844Z,66.80
2019-03-28T06:47:45.329Z,58.70
2019-03-28T06:52:48.808Z,48.08
2019-03-28T06:57:52.300Z,37.08
2019-03-28T07:02:55.857Z,26.93
2019-03-28T07:07:59.329Z,31.35
2019-03-28T07:13:02.833Z,26.77
2019-03-28T07:18:06.358Z,22.30
2019-03-28T07:23:09.856Z,20.77
2019-03-28T07:28:13.410Z,22.25
2019-03-28T07:33:16.894Z,19.40
2019-03-28T07:38:20.439Z,18.30
2019-03-28T07:43:25.247Z,15.75
2019-03-28T07:48:29.297Z,14.23
2019-03-28T07:53:32.760Z,21.23
2019-03-28T07:58:36.308Z,11.63
2019-03-28T08:03:40.090Z,13.35
2019-03-28T08:08:44.248Z,9.13
2019-03-28T08:13:47.975Z,10.55
2019-03-28T08:18:51.683Z,10.32
2019-03-28T08:23:55.235Z,10.82
2019-03-28T08:28:58.736Z,8.88
2019-03-28T08:34:02.211Z,9.43
2019-03-28T08:39:07.357Z,12.20
2019-03-28T08:44:10.957Z,12.65
2019-03-28T08:49:14.466Z,10.72
2019-03-28T08:54:17.949Z,13.30
2019-03-28T08:59:21.450Z,8.75
2019-03-28T09:04:24.930Z,8.08
2019-03-28T09:09:28.478Z,9.75
2019-03-28T09:14:32.229Z,8.83
2019-03-28T09:19:38.837Z,7.45
2019-03-28T09:24:41.108Z,5.87
2019-03-28T09:29:44.569Z,7.85
2019-03-28T09:34:48.192Z,8.25
2019-03-28T09:39:51.657Z,7.72
2019-03-28T09:44:56.334Z,6.55
2019-03-28T09:50:00.183Z,6.58
2019-03-28T09:55:04.890Z,5.62
2019-03-28T10:00:11.903Z,6.53
2019-03-28T10:05:15.384Z,7.15
2019-03-28T10:10:18.958Z,9.98
2019-03-28T10:15:22.522Z,8.10
2019-03-28T10:20:25.985Z,24.50
2019-03-28T10:25:29.455Z,42.30
2019-03-28T10:30:40.936Z,45.33
2019-03-28T10:35:44.779Z,43.17
2019-03-28T10:40:48.256Z,43.90
2019-03-28T10:45:51.847Z,43.95
2019-03-28T10:50:55.411Z,38.73
2019-03-28T10:55:58.907Z,29.30
2019-03-28T11:01:02.476Z,30.27
2019-03-28T11:06:06.523Z,27.10
2019-03-28T11:11:10.203Z,28.90
2019-03-28T11:16:15.243Z,19.40
2019-03-28T11:21:19.081Z,20.65
2019-03-28T11:26:22.636Z,17.92
2019-03-28T11:31:26.186Z,15.48
2019-03-28T11:36:29.735Z,22.70
2019-03-28T11:41:33.284Z,16.73
2019-03-28T11:46:36.749Z,17.27
2019-03-28T11:51:40.274Z,24.67
2019-03-28T11:56:43.843Z,33.95
2019-03-28T12:01:59.348Z,19.62
2019-03-28T12:06:52.544Z,26.95
2019-03-28T12:11:56.087Z,22.62
2019-03-28T12:16:59.657Z,21.80
2019-03-28T12:22:03.137Z,22.05
2019-03-28T12:27:06.683Z,22.07
2019-03-28T12:32:14.313Z,17.25
2019-03-28T12:37:15.833Z,15.93
2019-03-28T12:42:19.310Z,14.05
2019-03-28T12:47:22.840Z,12.47
2019-03-28T12:52:29.600Z,13.15
2019-03-28T12:57:31.517Z,11.83
2019-03-28T13:02:35.688Z,12.20
2019-03-28T13:07:39.196Z,11.78
2019-03-28T13:12:42.824Z,10.93
2019-03-28T13:17:46.286Z,9.05
2019-03-28T13:22:52.011Z,11.20
2019-03-28T13:27:55.050Z,12.37
2019-03-28T13:32:58.510Z,7.95
2019-03-28T13:38:02.064Z,9.33
2019-03-28T13:43:05.690Z,13.32
2019-03-28T13:48:09.233Z,9.45
2019-03-28T13:53:12.705Z,8.50
2019-03-28T13:58:16.207Z,8.98
2019-03-28T14:03:19.817Z,9.28
2019-03-28T14:08:23.348Z,9.85
2019-03-28T14:13:26.805Z,6.83
2019-03-28T14:18:30.367Z,8.83
2019-03-28T14:23:34.138Z,10.55
2019-03-28T14:28:37.630Z,7.83
2019-03-28T14:33:41.198Z,7.80
2019-03-28T14:38:45.006Z,8.00
2019-03-28T14:43:48.478Z,8.38
2019-03-28T14:48:52.080Z,8.40
2019-03-28T14:53:55.920Z,10.18
2019-03-28T14:59:01.311Z,6.55
2019-03-28T15:04:04.777Z,5.85
2019-03-28T15:09:09.751Z,4.55
2019-03-28T15:14:13.697Z,5.22
2019-03-28T15:19:17.201Z,6.15
2019-03-28T15:24:21.247Z,4.95
2019-03-28T15:29:25.252Z,5.22
2019-03-28T15:34:28.768Z,6.67
2019-03-28T15:39:32.326Z,4.65
2019-03-28T15:44:39.148Z,4.03
2019-03-28T15:49:41.359Z,3.72
2019-03-28T15:54:44.827Z,17.87
2019-03-28T15:59:48.303Z,31.87
2019-03-28T16:04:51.779Z,39.35
2019-03-28T16:09:55.257Z,38.40
2019-03-28T16:14:58.804Z,31.97
2019-03-28T16:20:02.289Z,29.87
2019-03-28T16:25:07.170Z,27.07
2019-03-28T16:30:13.146Z,21.97
2019-03-28T16:35:16.633Z,19.45
2019-03-28T16:40:20.185Z,17.62
2019-03-28T16:45:23.772Z,22.07
2019-03-28T16:50:27.364Z,16.20
2019-03-28T16:55:30.877Z,15.40
2019-03-28T17:00:38.611Z,13.10
2019-03-28T17:05:42.393Z,12.78
2019-03-28T17:10:48.965Z,11.90
2019-03-28T17:15:53.717Z,11.38
2019-03-28T17:20:57.251Z,12.53
2019-03-28T17:26:00.715Z,11.00
2019-03-28T17:31:04.199Z,10.82
2019-03-28T17:36:07.692Z,12.85
2019-03-28T17:41:11.153Z,9.70
2019-03-28T17:46:14.723Z,8.25
2019-03-28T17:51:18.216Z,7.35
2019-03-28T17:56:21.958Z,10.50
2019-03-28T18:01:25.600Z,9.58
2019-03-28T18:06:29.151Z,10.15
2019-03-28T18:11:32.631Z,12.50
2019-03-28T18:16:36.269Z,11.20
2019-03-28T18:21:39.724Z,9.43
2019-03-28T18:26:43.203Z,16.35
2019-03-28T18:31:50.609Z,12.75
2019-03-28T18:36:52.122Z,14.75
2019-03-28T18:41:56.789Z,8.85
2019-03-28T18:47:00.404Z,9.38
2019-03-28T18:52:05.921Z,8.03
2019-03-28T18:57:09.118Z,12.53
2019-03-28T19:02:12.709Z,9.50
2019-03-28T19:07:16.228Z,12.50
2019-03-28T19:12:19.729Z,13.18
2019-03-28T19:17:23.205Z,12.13
2019-03-28T19:22:26.685Z,15.50
2019-03-28T19:27:30.423Z,10.13
2019-03-28T19:32:34.114Z,11.03
2019-03-28T19:37:38.465Z,16.52
2019-03-28T19:42:42.298Z,13.58
2019-03-28T19:47:45.796Z,19.00
2019-03-28T19:52:49.375Z,11.85
2019-03-28T19:57:52.867Z,13.53
2019-03-28T20:02:56.347Z,13.22
2019-03-28T20:07:59.870Z,9.45
2019-03-28T20:13:05.205Z,15.48
2019-03-28T20:18:09.772Z,7.72
2019-03-28T20:23:13.621Z,12.03
2019-03-28T20:28:17.186Z,7.60
2019-03-28T20:33:20.663Z,10.60
2019-03-28T20:38:24.527Z,13.25
2019-03-28T20:43:28.041Z,8.70
2019-03-28T20:48:31.549Z,13.20
2019-03-28T20:53:35.110Z,20.27
2019-03-28T20:58:38.603Z,10.72
2019-03-28T21:03:42.079Z,12.13
2019-03-28T21:08:45.558Z,13.43
2019-03-28T21:13:49.122Z,12.60
2019-03-28T21:18:52.847Z,11.43
2019-03-28T21:23:56.735Z,13.15
2019-03-28T21:29:00.199Z,12.43
2019-03-28T21:34:03.736Z,12.30
2019-03-28T21:39:08.894Z,9.93
2019-03-28T21:44:12.713Z,10.38
2019-03-28T21:49:16.266Z,9.73
2019-03-28T21:54:19.791Z,10.03
2019-03-28T21:59:23.263Z,12.18
2019-03-28T22:04:26.722Z,10.60
2019-03-28T22:09:31.097Z,10.30
2019-03-28T22:14:34.605Z,18.30
2019-03-28T22:19:38.067Z,24.50
2019-03-28T22:24:41.556Z,17.75
2019-03-28T22:29:45.399Z,19.80
2019-03-28T22:34:49.273Z,16.95
2019-03-28T22:39:52.776Z,17.23
2019-03-28T22:44:56.326Z,16.45
2019-03-28T22:49:59.800Z,15.13
2019-03-28T22:55:05.414Z,17.10
2019-03-28T23:00:11.950Z,15.10
2019-03-28T23:05:16.058Z,15.72
2019-03-28T23:10:21.063Z,13.78
2019-03-28T23:15:24.638Z,14.78
2019-03-28T23:20:28.221Z,14.38
2019-03-28T23:25:31.704Z,11.28
2019-03-28T23:30:35.182Z,14.18
2019-03-28T23:35:38.748Z,12.00
2019-03-28T23:40:42.210Z,14.45
2019-03-28T23:45:45.827Z,12.47
2019-03-28T23:50:49.538Z,12.40
2019-03-28T23:55:53.106Z,12.73
